Terminal Aerodrome Forecast
Issued by NWS

Home | Current Version | Previous Version | Text Only | Print | Product List | Glossary On
Versions: 1 2 3 4 5 6 7 8 9 10 11 12 13 14 15 16 17 18 19
000
FTUS42 KTBW 280800 AAA
TAFRSW
TAF AMD
KRSW 280830Z 2809/2906 00000KT 1SM BR FEW015 BKN035
      TEMPO 2809/2813 1/2SM FG VV009
     FM281300 00000KT 1SM BR SCT005 SCT250
     FM281400 16005KT P6SM SCT005 SCT250
     FM281700 19006KT P6SM SCT025 SCT250=

USA.gov is the U.S. government's official web portal to all federal, state and local government web resources and services.